sensor_id;sensor_type;location;lat;lon;timestamp;temperature;humidity
13172;DHT22;6651;53.200;10.432;2023-08-17T00:00:33;18.60;99.90
13172;DHT22;6651;53.200;10.432;2023-08-17T00:02:58;18.60;99.90
13172;DHT22;6651;53.200;10.432;2023-08-17T00:05:24;18.60;99.90
13172;DHT22;6651;53.200;10.432;2023-08-17T00:07:49;18.60;99.90
13172;DHT22;6651;53.200;10.432;2023-08-17T00:10:15;18.60;99.90
13172;DHT22;6651;53.200;10.432;2023-08-17T00:12:41;18.60;99.90
13172;DHT22;6651;53.200;10.432;2023-08-17T00:15:06;18.50;99.90
13172;DHT22;6651;53.200;10.432;2023-08-17T00:17:32;18.50;99.90
13172;DHT22;6651;53.200;10.432;2023-08-17T00:19:58;18.40;99.90
13172;DHT22;6651;53.200;10.432;2023-08-17T00:22:23;18.40;99.90
13172;DHT22;6651;53.200;10.432;2023-08-17T00:24:49;18.40;99.90
13172;DHT22;6651;53.200;10.432;2023-08-17T00:27:15;18.40;99.90
13172;DHT22;6651;53.200;10.432;2023-08-17T00:29:40;18.30;99.90
13172;DHT22;6651;53.200;10.432;2023-08-17T00:32:06;18.30;99.90
13172;DHT22;6651;53.200;10.432;2023-08-17T00:34:32;18.30;99.90
13172;DHT22;6651;53.200;10.432;2023-08-17T00:36:57;18.30;99.90
13172;DHT22;6651;53.200;10.432;2023-08-17T00:39:23;18.30;99.90
13172;DHT22;6651;53.200;10.432;2023-08-17T00:41:49;18.30;99.90
13172;DHT22;6651;53.200;10.432;2023-08-17T00:44:14;18.30;99.90
13172;DHT22;6651;53.200;10.432;2023-08-17T00:46:40;18.30;99.90
13172;DHT22;6651;53.200;10.432;2023-08-17T00:49:06;18.30;99.90
13172;DHT22;6651;53.200;10.432;2023-08-17T00:51:32;18.30;99.90
13172;DHT22;6651;53.200;10.432;2023-08-17T00:54:00;18.30;99.90
13172;DHT22;6651;53.200;10.432;2023-08-17T00:56:27;18.30;99.90
13172;DHT22;6651;53.200;10.432;2023-08-17T00:58:53;18.30;99.90
13172;DHT22;6651;53.200;10.432;2023-08-17T01:01:20;18.30;99.90
13172;DHT22;6651;53.200;10.432;2023-08-17T01:03:46;18.20;99.90
13172;DHT22;6651;53.200;10.432;2023-08-17T01:06:12;18.30;99.90
13172;DHT22;6651;53.200;10.432;2023-08-17T01:08:38;18.20;99.90
13172;DHT22;6651;53.200;10.432;2023-08-17T01:11:41;18.30;99.90
13172;DHT22;6651;53.200;10.432;2023-08-17T01:19:24;18.30;99.90
13172;DHT22;6651;53.200;10.432;2023-08-17T01:21:51;18.30;99.90
13172;DHT22;6651;53.200;10.432;2023-08-17T01:24:19;18.30;99.90
13172;DHT22;6651;53.200;10.432;2023-08-17T01:26:45;18.30;99.90
13172;DHT22;6651;53.200;10.432;2023-08-17T01:29:11;18.30;99.90
13172;DHT22;6651;53.200;10.432;2023-08-17T01:31:54;18.30;99.90
13172;DHT22;6651;53.200;10.432;2023-08-17T01:34:25;18.30;99.90
13172;DHT22;6651;53.200;10.432;2023-08-17T01:36:56;18.30;99.90
13172;DHT22;6651;53.200;10.432;2023-08-17T01:39:27;18.30;99.90
13172;DHT22;6651;53.200;10.432;2023-08-17T01:41:56;18.30;99.90
13172;DHT22;6651;53.200;10.432;2023-08-17T01:44:24;18.30;99.90
13172;DHT22;6651;53.200;10.432;2023-08-17T01:46:51;18.30;99.90
13172;DHT22;6651;53.200;10.432;2023-08-17T01:49:17;18.30;99.90
13172;DHT22;6651;53.200;10.432;2023-08-17T01:51:42;18.30;99.90
13172;DHT22;6651;53.200;10.432;2023-08-17T01:54:08;18.30;99.90
13172;DHT22;6651;53.200;10.432;2023-08-17T01:56:34;18.20;99.90
13172;DHT22;6651;53.200;10.432;2023-08-17T01:58:59;18.10;99.90
13172;DHT22;6651;53.200;10.432;2023-08-17T02:01:25;18.10;99.90
13172;DHT22;6651;53.200;10.432;2023-08-17T02:03:51;18.10;99.90
13172;DHT22;6651;53.200;10.432;2023-08-17T02:06:17;18.20;99.90
13172;DHT22;6651;53.200;10.432;2023-08-17T02:08:43;18.20;99.90
13172;DHT22;6651;53.200;10.432;2023-08-17T02:11:09;18.10;99.90
13172;DHT22;6651;53.200;10.432;2023-08-17T02:13:35;18.10;99.90
13172;DHT22;6651;53.200;10.432;2023-08-17T02:16:03;18.00;99.90
13172;DHT22;6651;53.200;10.432;2023-08-17T02:18:29;18.00;99.90
13172;DHT22;6651;53.200;10.432;2023-08-17T02:20:57;18.00;99.90
13172;DHT22;6651;53.200;10.432;2023-08-17T02:23:22;18.00;99.90
13172;DHT22;6651;53.200;10.432;2023-08-17T02:25:48;18.00;99.90
13172;DHT22;6651;53.200;10.432;2023-08-17T02:28:13;18.00;99.90
13172;DHT22;6651;53.200;10.432;2023-08-17T02:30:39;17.90;99.90
13172;DHT22;6651;53.200;10.432;2023-08-17T02:33:05;17.90;99.90
13172;DHT22;6651;53.200;10.432;2023-08-17T02:35:30;17.90;99.90
13172;DHT22;6651;53.200;10.432;2023-08-17T02:37:56;18.00;99.90
13172;DHT22;6651;53.200;10.432;2023-08-17T02:40:22;18.10;99.90
13172;DHT22;6651;53.200;10.432;2023-08-17T02:42:47;18.10;99.90
13172;DHT22;6651;53.200;10.432;2023-08-17T02:45:13;18.10;99.90
13172;DHT22;6651;53.200;10.432;2023-08-17T02:47:39;18.10;99.90
13172;DHT22;6651;53.200;10.432;2023-08-17T02:50:05;18.20;99.90
13172;DHT22;6651;53.200;10.432;2023-08-17T02:52:30;18.10;99.90
13172;DHT22;6651;53.200;10.432;2023-08-17T02:54:56;18.00;99.90
13172;DHT22;6651;53.200;10.432;2023-08-17T02:57:22;18.00;99.90
13172;DHT22;6651;53.200;10.432;2023-08-17T02:59:47;18.00;99.90
13172;DHT22;6651;53.200;10.432;2023-08-17T03:02:13;18.00;99.90
13172;DHT22;6651;53.200;10.432;2023-08-17T03:04:38;18.00;99.90
13172;DHT22;6651;53.200;10.432;2023-08-17T03:07:04;18.00;99.90
13172;DHT22;6651;53.200;10.432;2023-08-17T03:09:30;18.00;99.90
13172;DHT22;6651;53.200;10.432;2023-08-17T03:11:55;18.20;99.90
13172;DHT22;6651;53.200;10.432;2023-08-17T03:14:21;18.20;99.90
13172;DHT22;6651;53.200;10.432;2023-08-17T03:16:47;18.10;99.90
13172;DHT22;6651;53.200;10.432;2023-08-17T03:19:12;18.00;99.90
13172;DHT22;6651;53.200;10.432;2023-08-17T03:21:38;18.00;99.90
13172;DHT22;6651;53.200;10.432;2023-08-17T03:24:04;18.00;99.90
13172;DHT22;6651;53.200;10.432;2023-08-17T03:26:30;17.90;99.90
13172;DHT22;6651;53.200;10.432;2023-08-17T03:28:55;17.90;99.90
13172;DHT22;6651;53.200;10.432;2023-08-17T03:31:21;17.90;99.90
13172;DHT22;6651;53.200;10.432;2023-08-17T03:33:47;18.00;99.90
13172;DHT22;6651;53.200;10.432;2023-08-17T03:36:13;18.00;99.90
13172;DHT22;6651;53.200;10.432;2023-08-17T03:38:39;18.00;99.90
13172;DHT22;6651;53.200;10.432;2023-08-17T03:41:08;17.90;99.90
13172;DHT22;6651;53.200;10.432;2023-08-17T03:43:34;18.00;99.90
13172;DHT22;6651;53.200;10.432;2023-08-17T03:46:01;18.00;99.90
13172;DHT22;6651;53.200;10.432;2023-08-17T03:48:27;18.00;99.90
13172;DHT22;6651;53.200;10.432;2023-08-17T03:50:56;18.00;99.90
13172;DHT22;6651;53.200;10.432;2023-08-17T03:53:21;18.00;99.90
13172;DHT22;6651;53.200;10.432;2023-08-17T03:55:48;18.00;99.90
13172;DHT22;6651;53.200;10.432;2023-08-17T03:58:14;18.00;99.90
13172;DHT22;6651;53.200;10.432;2023-08-17T04:00:40;18.00;99.90
13172;DHT22;6651;53.200;10.432;2023-08-17T04:03:06;18.00;99.90
13172;DHT22;6651;53.200;10.432;2023-08-17T04:05:32;18.00;99.90
13172;DHT22;6651;53.200;10.432;2023-08-17T04:08:00;18.00;99.90
13172;DHT22;6651;53.200;10.432;2023-08-17T04:10:30;18.00;99.90
13172;DHT22;6651;53.200;10.432;2023-08-17T04:12:59;17.90;99.90
13172;DHT22;6651;53.200;10.432;2023-08-17T04:15:24;17.90;99.90
13172;DHT22;6651;53.200;10.432;2023-08-17T04:17:50;18.00;99.90
13172;DHT22;6651;53.200;10.432;2023-08-17T04:20:16;17.90;99.90
13172;DHT22;6651;53.200;10.432;2023-08-17T04:22:43;17.90;99.90
13172;DHT22;6651;53.200;10.432;2023-08-17T04:25:09;17.90;99.90
13172;DHT22;6651;53.200;10.432;2023-08-17T04:27:35;17.90;99.90
13172;DHT22;6651;53.200;10.432;2023-08-17T04:30:01;17.90;99.90
13172;DHT22;6651;53.200;10.432;2023-08-17T04:32:27;17.90;99.90
13172;DHT22;6651;53.200;10.432;2023-08-17T04:34:52;17.90;99.90
13172;DHT22;6651;53.200;10.432;2023-08-17T04:37:18;17.70;99.90
13172;DHT22;6651;53.200;10.432;2023-08-17T04:39:43;17.80;99.90
13172;DHT22;6651;53.200;10.432;2023-08-17T04:42:10;17.70;99.90
13172;DHT22;6651;53.200;10.432;2023-08-17T04:44:35;17.60;99.90
13172;DHT22;6651;53.200;10.432;2023-08-17T04:47:01;17.60;99.90
13172;DHT22;6651;53.200;10.432;2023-08-17T04:49:27;17.50;99.90
13172;DHT22;6651;53.200;10.432;2023-08-17T04:51:53;17.40;99.90
13172;DHT22;6651;53.200;10.432;2023-08-17T04:54:19;17.30;99.90
13172;DHT22;6651;53.200;10.432;2023-08-17T04:56:44;17.30;99.90
13172;DHT22;6651;53.200;10.432;2023-08-17T04:59:10;17.30;99.90
13172;DHT22;6651;53.200;10.432;2023-08-17T05:01:35;17.30;99.90
13172;DHT22;6651;53.200;10.432;2023-08-17T05:04:02;17.30;99.90
13172;DHT22;6651;53.200;10.432;2023-08-17T05:06:31;17.30;99.90
13172;DHT22;6651;53.200;10.432;2023-08-17T05:08:58;17.20;99.90
13172;DHT22;6651;53.200;10.432;2023-08-17T05:11:24;17.10;99.90
13172;DHT22;6651;53.200;10.432;2023-08-17T05:13:49;17.00;99.90
13172;DHT22;6651;53.200;10.432;2023-08-17T05:16:15;17.00;99.90
13172;DHT22;6651;53.200;10.432;2023-08-17T05:18:41;17.00;99.90
13172;DHT22;6651;53.200;10.432;2023-08-17T05:21:06;16.90;99.90
13172;DHT22;6651;53.200;10.432;2023-08-17T05:23:32;16.90;99.90
13172;DHT22;6651;53.200;10.432;2023-08-17T05:25:58;16.90;99.90
13172;DHT22;6651;53.200;10.432;2023-08-17T05:28:24;16.90;99.90
13172;DHT22;6651;53.200;10.432;2023-08-17T05:30:50;17.00;99.90
13172;DHT22;6651;53.200;10.432;2023-08-17T05:33:16;16.90;99.90
13172;DHT22;6651;53.200;10.432;2023-08-17T05:35:41;16.90;99.90
13172;DHT22;6651;53.200;10.432;2023-08-17T05:38:08;16.80;99.90
13172;DHT22;6651;53.200;10.432;2023-08-17T05:40:35;16.80;99.90
13172;DHT22;6651;53.200;10.432;2023-08-17T05:43:01;16.80;99.90
13172;DHT22;6651;53.200;10.432;2023-08-17T05:45:26;16.90;99.90
13172;DHT22;6651;53.200;10.432;2023-08-17T05:47:52;16.80;99.90
13172;DHT22;6651;53.200;10.432;2023-08-17T05:50:18;16.80;99.90
13172;DHT22;6651;53.200;10.432;2023-08-17T05:52:44;16.80;99.90
13172;DHT22;6651;53.200;10.432;2023-08-17T05:55:10;16.80;99.90
13172;DHT22;6651;53.200;10.432;2023-08-17T05:57:35;16.70;99.90
13172;DHT22;6651;53.200;10.432;2023-08-17T06:00:01;16.70;99.90
13172;DHT22;6651;53.200;10.432;2023-08-17T06:02:27;16.60;99.90
13172;DHT22;6651;53.200;10.432;2023-08-17T06:04:52;16.60;99.90
13172;DHT22;6651;53.200;10.432;2023-08-17T06:07:18;16.60;99.90
13172;DHT22;6651;53.200;10.432;2023-08-17T06:09:43;16.60;99.90
13172;DHT22;6651;53.200;10.432;2023-08-17T06:12:10;16.40;99.90
13172;DHT22;6651;53.200;10.432;2023-08-17T06:14:36;16.30;99.90
13172;DHT22;6651;53.200;10.432;2023-08-17T06:17:02;16.20;99.90
13172;DHT22;6651;53.200;10.432;2023-08-17T06:19:28;16.00;99.90
13172;DHT22;6651;53.200;10.432;2023-08-17T06:21:53;16.00;99.90
13172;DHT22;6651;53.200;10.432;2023-08-17T06:31:37;15.70;99.90
13172;DHT22;6651;53.200;10.432;2023-08-17T06:34:03;15.70;99.90
13172;DHT22;6651;53.200;10.432;2023-08-17T06:36:31;15.60;99.90
13172;DHT22;6651;53.200;10.432;2023-08-17T06:38:58;15.60;99.90
13172;DHT22;6651;53.200;10.432;2023-08-17T06:41:24;15.50;99.90
13172;DHT22;6651;53.200;10.432;2023-08-17T06:43:50;15.60;99.90
13172;DHT22;6651;53.200;10.432;2023-08-17T06:46:16;15.50;99.90
13172;DHT22;6651;53.200;10.432;2023-08-17T06:48:43;15.60;99.90
13172;DHT22;6651;53.200;10.432;2023-08-17T06:51:08;15.50;99.90
13172;DHT22;6651;53.200;10.432;2023-08-17T06:53:34;15.60;99.90
13172;DHT22;6651;53.200;10.432;2023-08-17T06:56:00;15.50;99.90
13172;DHT22;6651;53.200;10.432;2023-08-17T06:58:25;15.50;99.90
13172;DHT22;6651;53.200;10.432;2023-08-17T07:00:51;15.50;99.90
13172;DHT22;6651;53.200;10.432;2023-08-17T07:03:17;15.50;99.90
13172;DHT22;6651;53.200;10.432;2023-08-17T07:05:43;15.50;99.90
13172;DHT22;6651;53.200;10.432;2023-08-17T07:08:09;15.50;99.90
13172;DHT22;6651;53.200;10.432;2023-08-17T07:10:35;15.50;99.90
13172;DHT22;6651;53.200;10.432;2023-08-17T07:13:00;15.50;99.90
13172;DHT22;6651;53.200;10.432;2023-08-17T07:15:29;15.50;99.90
13172;DHT22;6651;53.200;10.432;2023-08-17T07:17:55;15.60;99.90
13172;DHT22;6651;53.200;10.432;2023-08-17T07:20:21;15.50;99.90
13172;DHT22;6651;53.200;10.432;2023-08-17T07:22:47;15.50;99.90
13172;DHT22;6651;53.200;10.432;2023-08-17T07:25:13;15.50;99.90
13172;DHT22;6651;53.200;10.432;2023-08-17T07:27:38;15.50;99.90
13172;DHT22;6651;53.200;10.432;2023-08-17T07:30:04;15.50;99.90
13172;DHT22;6651;53.200;10.432;2023-08-17T07:32:30;15.50;99.90
13172;DHT22;6651;53.200;10.432;2023-08-17T07:34:56;15.50;99.90
13172;DHT22;6651;53.200;10.432;2023-08-17T07:37:25;15.60;99.90
13172;DHT22;6651;53.200;10.432;2023-08-17T07:39:57;15.70;99.90
13172;DHT22;6651;53.200;10.432;2023-08-17T07:42:23;15.80;99.90
13172;DHT22;6651;53.200;10.432;2023-08-17T07:44:48;15.80;99.90
13172;DHT22;6651;53.200;10.432;2023-08-17T07:47:14;15.70;99.90
13172;DHT22;6651;53.200;10.432;2023-08-17T07:49:40;15.70;99.90
13172;DHT22;6651;53.200;10.432;2023-08-17T07:52:05;15.70;99.90
13172;DHT22;6651;53.200;10.432;2023-08-17T07:54:31;15.70;99.90
13172;DHT22;6651;53.200;10.432;2023-08-17T07:56:57;15.70;99.90
13172;DHT22;6651;53.200;10.432;2023-08-17T07:59:23;15.80;99.90
13172;DHT22;6651;53.200;10.432;2023-08-17T08:01:49;15.80;99.90
13172;DHT22;6651;53.200;10.432;2023-08-17T08:04:14;15.80;99.90
13172;DHT22;6651;53.200;10.432;2023-08-17T08:06:40;15.90;99.90
13172;DHT22;6651;53.200;10.432;2023-08-17T08:09:06;15.90;99.90
13172;DHT22;6651;53.200;10.432;2023-08-17T08:11:32;15.90;99.90
13172;DHT22;6651;53.200;10.432;2023-08-17T08:13:58;15.90;99.90
13172;DHT22;6651;53.200;10.432;2023-08-17T08:16:23;15.80;99.90
13172;DHT22;6651;53.200;10.432;2023-08-17T08:18:49;15.70;99.90
13172;DHT22;6651;53.200;10.432;2023-08-17T08:21:14;15.70;99.90
13172;DHT22;6651;53.200;10.432;2023-08-17T08:23:40;15.60;99.90
13172;DHT22;6651;53.200;10.432;2023-08-17T08:26:06;15.60;99.90
13172;DHT22;6651;53.200;10.432;2023-08-17T08:28:31;15.70;99.90
13172;DHT22;6651;53.200;10.432;2023-08-17T08:31:02;15.70;99.90
13172;DHT22;6651;53.200;10.432;2023-08-17T08:33:28;15.80;99.90
13172;DHT22;6651;53.200;10.432;2023-08-17T08:35:54;15.80;99.90
13172;DHT22;6651;53.200;10.432;2023-08-17T08:38:19;15.80;99.90
13172;DHT22;6651;53.200;10.432;2023-08-17T08:40:47;15.80;99.90
13172;DHT22;6651;53.200;10.432;2023-08-17T08:43:13;15.80;99.90
13172;DHT22;6651;53.200;10.432;2023-08-17T08:45:42;15.80;99.90
13172;DHT22;6651;53.200;10.432;2023-08-17T08:48:13;15.70;99.90
13172;DHT22;6651;53.200;10.432;2023-08-17T08:50:40;15.70;99.90
13172;DHT22;6651;53.200;10.432;2023-08-17T08:53:13;15.70;99.90
13172;DHT22;6651;53.200;10.432;2023-08-17T08:55:45;15.80;99.90
13172;DHT22;6651;53.200;10.432;2023-08-17T08:58:14;15.90;99.90
13172;DHT22;6651;53.200;10.432;2023-08-17T09:00:41;16.00;99.90
13172;DHT22;6651;53.200;10.432;2023-08-17T09:03:09;16.00;99.90
13172;DHT22;6651;53.200;10.432;2023-08-17T09:05:35;16.10;99.90
13172;DHT22;6651;53.200;10.432;2023-08-17T09:08:02;16.20;99.90
13172;DHT22;6651;53.200;10.432;2023-08-17T09:10:29;16.20;99.90
13172;DHT22;6651;53.200;10.432;2023-08-17T09:12:54;16.10;99.90
13172;DHT22;6651;53.200;10.432;2023-08-17T09:15:20;16.10;99.90
13172;DHT22;6651;53.200;10.432;2023-08-17T09:17:46;16.00;99.90
13172;DHT22;6651;53.200;10.432;2023-08-17T09:20:40;16.00;99.90
13172;DHT22;6651;53.200;10.432;2023-08-17T09:23:18;15.90;99.90
13172;DHT22;6651;53.200;10.432;2023-08-17T09:25:51;15.90;99.90
13172;DHT22;6651;53.200;10.432;2023-08-17T09:28:26;15.90;99.90
13172;DHT22;6651;53.200;10.432;2023-08-17T09:31:01;15.90;99.90
13172;DHT22;6651;53.200;10.432;2023-08-17T09:33:30;16.00;99.90
13172;DHT22;6651;53.200;10.432;2023-08-17T09:35:57;16.00;99.90
13172;DHT22;6651;53.200;10.432;2023-08-17T09:38:23;16.00;99.90
13172;DHT22;6651;53.200;10.432;2023-08-17T09:40:49;16.00;99.90
13172;DHT22;6651;53.200;10.432;2023-08-17T09:43:15;16.10;99.90
13172;DHT22;6651;53.200;10.432;2023-08-17T09:45:43;16.00;99.90
13172;DHT22;6651;53.200;10.432;2023-08-17T09:48:14;16.10;99.90
13172;DHT22;6651;53.200;10.432;2023-08-17T09:50:42;16.00;99.90
13172;DHT22;6651;53.200;10.432;2023-08-17T09:53:18;16.00;99.90
13172;DHT22;6651;53.200;10.432;2023-08-17T09:55:44;15.90;99.90
13172;DHT22;6651;53.200;10.432;2023-08-17T09:58:11;15.90;99.90
13172;DHT22;6651;53.200;10.432;2023-08-17T10:00:49;15.90;99.90
13172;DHT22;6651;53.200;10.432;2023-08-17T10:03:17;15.80;99.90
13172;DHT22;6651;53.200;10.432;2023-08-17T10:05:47;15.80;99.90
13172;DHT22;6651;53.200;10.432;2023-08-17T10:08:15;15.80;99.90
13172;DHT22;6651;53.200;10.432;2023-08-17T10:10:45;15.90;99.90
13172;DHT22;6651;53.200;10.432;2023-08-17T10:13:33;15.90;99.90
13172;DHT22;6651;53.200;10.432;2023-08-17T10:16:23;15.90;99.90
13172;DHT22;6651;53.200;10.432;2023-08-17T10:19:05;15.80;99.90
13172;DHT22;6651;53.200;10.432;2023-08-17T10:21:56;15.70;99.90
13172;DHT22;6651;53.200;10.432;2023-08-17T10:24:25;15.70;99.90
13172;DHT22;6651;53.200;10.432;2023-08-17T10:26:51;15.70;99.90
13172;DHT22;6651;53.200;10.432;2023-08-17T10:29:17;15.70;99.90
13172;DHT22;6651;53.200;10.432;2023-08-17T10:31:44;15.70;99.90
13172;DHT22;6651;53.200;10.432;2023-08-17T10:34:14;15.70;99.90
13172;DHT22;6651;53.200;10.432;2023-08-17T10:36:41;15.70;99.90
13172;DHT22;6651;53.200;10.432;2023-08-17T10:39:23;15.60;99.90
13172;DHT22;6651;53.200;10.432;2023-08-17T10:41:52;15.60;99.90
13172;DHT22;6651;53.200;10.432;2023-08-17T10:44:42;15.60;99.90
13172;DHT22;6651;53.200;10.432;2023-08-17T10:49:51;15.60;99.90
13172;DHT22;6651;53.200;10.432;2023-08-17T10:52:25;15.60;99.90
13172;DHT22;6651;53.200;10.432;2023-08-17T10:54:52;15.60;99.90
13172;DHT22;6651;53.200;10.432;2023-08-17T11:00:18;15.70;99.90
13172;DHT22;6651;53.200;10.432;2023-08-17T11:02:55;15.70;99.90
13172;DHT22;6651;53.200;10.432;2023-08-17T11:11:06;15.80;99.90
13172;DHT22;6651;53.200;10.432;2023-08-17T11:13:45;15.80;99.90
13172;DHT22;6651;53.200;10.432;2023-08-17T11:16:13;15.80;99.90
13172;DHT22;6651;53.200;10.432;2023-08-17T11:18:39;15.80;99.90
13172;DHT22;6651;53.200;10.432;2023-08-17T11:21:07;15.80;99.90
13172;DHT22;6651;53.200;10.432;2023-08-17T11:23:37;15.80;99.90
13172;DHT22;6651;53.200;10.432;2023-08-17T11:26:03;15.90;99.90
13172;DHT22;6651;53.200;10.432;2023-08-17T11:28:30;15.90;99.90
13172;DHT22;6651;53.200;10.432;2023-08-17T11:31:06;15.80;99.90
13172;DHT22;6651;53.200;10.432;2023-08-17T11:33:32;15.80;99.90
13172;DHT22;6651;53.200;10.432;2023-08-17T11:36:00;15.90;99.90
13172;DHT22;6651;53.200;10.432;2023-08-17T11:38:47;15.90;99.90
13172;DHT22;6651;53.200;10.432;2023-08-17T11:41:12;16.00;99.90
13172;DHT22;6651;53.200;10.432;2023-08-17T11:43:40;16.00;99.90
13172;DHT22;6651;53.200;10.432;2023-08-17T11:46:05;15.90;99.90
13172;DHT22;6651;53.200;10.432;2023-08-17T11:48:32;15.80;99.90
13172;DHT22;6651;53.200;10.432;2023-08-17T11:50:57;15.90;99.90
13172;DHT22;6651;53.200;10.432;2023-08-17T11:53:23;15.80;99.90
13172;DHT22;6651;53.200;10.432;2023-08-17T11:55:49;15.90;99.90
13172;DHT22;6651;53.200;10.432;2023-08-17T11:58:15;15.90;99.90
13172;DHT22;6651;53.200;10.432;2023-08-17T12:00:43;15.90;99.90
13172;DHT22;6651;53.200;10.432;2023-08-17T12:03:15;16.00;99.90
13172;DHT22;6651;53.200;10.432;2023-08-17T12:05:41;16.00;99.90
13172;DHT22;6651;53.200;10.432;2023-08-17T12:08:08;16.00;99.90
13172;DHT22;6651;53.200;10.432;2023-08-17T12:10:34;16.10;99.90
13172;DHT22;6651;53.200;10.432;2023-08-17T12:13:00;16.20;99.90
13172;DHT22;6651;53.200;10.432;2023-08-17T12:15:33;16.20;99.90
13172;DHT22;6651;53.200;10.432;2023-08-17T12:18:02;16.30;99.90
13172;DHT22;6651;53.200;10.432;2023-08-17T12:20:28;16.30;99.90
13172;DHT22;6651;53.200;10.432;2023-08-17T12:22:57;16.30;99.90
13172;DHT22;6651;53.200;10.432;2023-08-17T12:25:25;16.30;99.90
13172;DHT22;6651;53.200;10.432;2023-08-17T12:27:50;16.20;99.90
13172;DHT22;6651;53.200;10.432;2023-08-17T12:30:30;16.20;99.90
13172;DHT22;6651;53.200;10.432;2023-08-17T12:32:58;16.10;99.90
13172;DHT22;6651;53.200;10.432;2023-08-17T12:35:29;16.10;99.90
13172;DHT22;6651;53.200;10.432;2023-08-17T12:37:55;16.10;99.90
13172;DHT22;6651;53.200;10.432;2023-08-17T12:40:21;16.10;99.90
13172;DHT22;6651;53.200;10.432;2023-08-17T12:42:48;16.10;99.90
13172;DHT22;6651;53.200;10.432;2023-08-17T12:45:14;16.10;99.90
13172;DHT22;6651;53.200;10.432;2023-08-17T12:47:40;16.10;99.90
13172;DHT22;6651;53.200;10.432;2023-08-17T12:50:07;16.20;99.90
13172;DHT22;6651;53.200;10.432;2023-08-17T12:52:32;16.10;99.90
13172;DHT22;6651;53.200;10.432;2023-08-17T12:54:58;16.10;99.90
13172;DHT22;6651;53.200;10.432;2023-08-17T12:57:24;16.10;99.90
13172;DHT22;6651;53.200;10.432;2023-08-17T12:59:50;16.20;99.90
13172;DHT22;6651;53.200;10.432;2023-08-17T13:02:15;16.20;99.90
13172;DHT22;6651;53.200;10.432;2023-08-17T13:04:41;16.30;99.90
13172;DHT22;6651;53.200;10.432;2023-08-17T13:07:07;16.30;99.90
13172;DHT22;6651;53.200;10.432;2023-08-17T13:09:33;16.30;99.90
13172;DHT22;6651;53.200;10.432;2023-08-17T13:11:59;16.30;99.90
13172;DHT22;6651;53.200;10.432;2023-08-17T13:14:25;16.30;99.90
13172;DHT22;6651;53.200;10.432;2023-08-17T13:16:51;16.20;99.90
13172;DHT22;6651;53.200;10.432;2023-08-17T13:19:17;16.20;99.90
13172;DHT22;6651;53.200;10.432;2023-08-17T13:21:43;16.10;99.90
13172;DHT22;6651;53.200;10.432;2023-08-17T13:24:08;16.20;99.90
13172;DHT22;6651;53.200;10.432;2023-08-17T13:26:34;16.20;99.90
13172;DHT22;6651;53.200;10.432;2023-08-17T13:29:00;16.20;99.90
13172;DHT22;6651;53.200;10.432;2023-08-17T13:31:26;16.10;99.90
13172;DHT22;6651;53.200;10.432;2023-08-17T13:33:52;16.10;99.90
13172;DHT22;6651;53.200;10.432;2023-08-17T13:36:18;16.10;99.90
13172;DHT22;6651;53.200;10.432;2023-08-17T13:38:44;16.10;99.90
13172;DHT22;6651;53.200;10.432;2023-08-17T13:41:10;16.20;99.90
13172;DHT22;6651;53.200;10.432;2023-08-17T13:43:36;16.20;99.90
13172;DHT22;6651;53.200;10.432;2023-08-17T13:46:02;16.20;99.90
13172;DHT22;6651;53.200;10.432;2023-08-17T13:48:30;16.20;99.90
13172;DHT22;6651;53.200;10.432;2023-08-17T13:50:56;16.20;99.90
13172;DHT22;6651;53.200;10.432;2023-08-17T13:53:22;16.20;99.90
13172;DHT22;6651;53.200;10.432;2023-08-17T13:55:47;16.30;99.90
13172;DHT22;6651;53.200;10.432;2023-08-17T13:58:13;16.30;99.90
13172;DHT22;6651;53.200;10.432;2023-08-17T14:00:39;16.30;99.90
13172;DHT22;6651;53.200;10.432;2023-08-17T14:03:05;16.30;99.90
13172;DHT22;6651;53.200;10.432;2023-08-17T14:05:31;16.30;99.90
13172;DHT22;6651;53.200;10.432;2023-08-17T14:07:57;16.30;99.90
13172;DHT22;6651;53.200;10.432;2023-08-17T14:10:22;16.40;99.90
13172;DHT22;6651;53.200;10.432;2023-08-17T14:12:48;16.40;99.90
13172;DHT22;6651;53.200;10.432;2023-08-17T14:15:14;16.40;99.90
13172;DHT22;6651;53.200;10.432;2023-08-17T14:17:40;16.50;99.90
13172;DHT22;6651;53.200;10.432;2023-08-17T14:20:06;16.40;99.90
13172;DHT22;6651;53.200;10.432;2023-08-17T14:22:32;16.40;99.90
13172;DHT22;6651;53.200;10.432;2023-08-17T14:24:58;16.40;99.90
13172;DHT22;6651;53.200;10.432;2023-08-17T14:27:24;16.40;99.90
13172;DHT22;6651;53.200;10.432;2023-08-17T14:29:50;16.40;99.90
13172;DHT22;6651;53.200;10.432;2023-08-17T14:32:15;16.40;99.90
13172;DHT22;6651;53.200;10.432;2023-08-17T14:34:41;16.50;99.90
13172;DHT22;6651;53.200;10.432;2023-08-17T14:37:07;16.40;99.90
13172;DHT22;6651;53.200;10.432;2023-08-17T14:39:32;16.50;99.90
13172;DHT22;6651;53.200;10.432;2023-08-17T14:41:58;16.50;99.90
13172;DHT22;6651;53.200;10.432;2023-08-17T14:44:24;16.50;99.90
13172;DHT22;6651;53.200;10.432;2023-08-17T14:46:49;16.60;99.90
13172;DHT22;6651;53.200;10.432;2023-08-17T14:49:15;16.60;99.90
13172;DHT22;6651;53.200;10.432;2023-08-17T14:51:41;16.70;99.90
13172;DHT22;6651;53.200;10.432;2023-08-17T14:54:08;16.70;99.90
13172;DHT22;6651;53.200;10.432;2023-08-17T14:56:34;16.80;99.90
13172;DHT22;6651;53.200;10.432;2023-08-17T14:59:00;16.80;99.90
13172;DHT22;6651;53.200;10.432;2023-08-17T15:01:27;16.80;99.90
13172;DHT22;6651;53.200;10.432;2023-08-17T15:03:54;16.80;99.90
13172;DHT22;6651;53.200;10.432;2023-08-17T15:06:19;16.70;99.90
13172;DHT22;6651;53.200;10.432;2023-08-17T15:08:50;16.70;99.90
13172;DHT22;6651;53.200;10.432;2023-08-17T15:11:16;16.70;99.90
13172;DHT22;6651;53.200;10.432;2023-08-17T15:13:42;16.70;99.90
13172;DHT22;6651;53.200;10.432;2023-08-17T15:16:08;16.80;99.90
13172;DHT22;6651;53.200;10.432;2023-08-17T15:18:34;16.70;99.90
13172;DHT22;6651;53.200;10.432;2023-08-17T15:21:00;16.70;99.90
13172;DHT22;6651;53.200;10.432;2023-08-17T15:23:25;16.70;99.90
13172;DHT22;6651;53.200;10.432;2023-08-17T15:25:51;16.70;99.90
13172;DHT22;6651;53.200;10.432;2023-08-17T15:28:16;16.70;99.90
13172;DHT22;6651;53.200;10.432;2023-08-17T15:30:42;16.70;99.90
13172;DHT22;6651;53.200;10.432;2023-08-17T15:33:08;16.70;99.90
13172;DHT22;6651;53.200;10.432;2023-08-17T15:35:33;16.70;99.90
13172;DHT22;6651;53.200;10.432;2023-08-17T15:37:59;16.70;99.90
13172;DHT22;6651;53.200;10.432;2023-08-17T15:40:25;16.70;99.90
13172;DHT22;6651;53.200;10.432;2023-08-17T15:42:51;16.70;99.90
13172;DHT22;6651;53.200;10.432;2023-08-17T15:45:16;16.70;99.90
13172;DHT22;6651;53.200;10.432;2023-08-17T15:47:46;16.70;99.90
13172;DHT22;6651;53.200;10.432;2023-08-17T15:50:12;16.80;99.90
13172;DHT22;6651;53.200;10.432;2023-08-17T15:52:37;16.70;99.90